Weather at Djanet Inedbirene Airport

Public forecast

Using degrees Celsius for public forecast. Weather courtesy of forecast.io.

Current aviation weather report (METAR) for Djanet Inedbirene Airport

Report is more than 6 hours old.

2022/11/14 15:00 (retrieved 2 years ago)

DAAJ 141500Z 25003KT CAVOK 24/M03 Q1022

Aviation forecast (TAF) for Djanet Inedbirene Airport

Forecast is more than 12 hours old.

2023/02/22 18:33 (retrieved 1 year ago)

TAF DAAJ 221700Z 2218/2318 27010KT CAVOK BECMG 2219/2221 VRB02KT